sensor_id;sensor_type;location;lat;lon;timestamp;P1;durP1;ratioP1;P2;durP2;ratioP2
51332;SDS011;37417;48.118;11.734;2023-01-29T00:01:38;25.83;;;13.37;;
51332;SDS011;37417;48.118;11.734;2023-01-29T00:04:03;32.80;;;13.88;;
51332;SDS011;37417;48.118;11.734;2023-01-29T00:06:28;30.70;;;14.38;;
51332;SDS011;37417;48.118;11.734;2023-01-29T00:08:54;24.33;;;13.35;;
51332;SDS011;37417;48.118;11.734;2023-01-29T00:11:19;32.40;;;13.95;;
51332;SDS011;37417;48.118;11.734;2023-01-29T00:13:45;28.50;;;13.83;;
51332;SDS011;37417;48.118;11.734;2023-01-29T00:16:11;26.83;;;12.50;;
51332;SDS011;37417;48.118;11.734;2023-01-29T00:18:36;27.40;;;12.88;;
51332;SDS011;37417;48.118;11.734;2023-01-29T00:21:02;24.38;;;12.55;;
51332;SDS011;37417;48.118;11.734;2023-01-29T00:23:27;25.87;;;12.67;;
51332;SDS011;37417;48.118;11.734;2023-01-29T00:25:52;27.17;;;13.77;;
51332;SDS011;37417;48.118;11.734;2023-01-29T00:28:17;28.60;;;14.17;;
51332;SDS011;37417;48.118;11.734;2023-01-29T00:30:42;26.13;;;13.70;;
51332;SDS011;37417;48.118;11.734;2023-01-29T00:33:07;30.63;;;13.60;;
51332;SDS011;37417;48.118;11.734;2023-01-29T00:35:33;25.55;;;12.10;;
51332;SDS011;37417;48.118;11.734;2023-01-29T00:37:58;21.80;;;10.65;;
51332;SDS011;37417;48.118;11.734;2023-01-29T00:40:24;24.13;;;12.48;;
51332;SDS011;37417;48.118;11.734;2023-01-29T00:42:49;21.45;;;12.40;;
51332;SDS011;37417;48.118;11.734;2023-01-29T00:45:33;23.20;;;10.98;;
51332;SDS011;37417;48.118;11.734;2023-01-29T00:48:00;25.90;;;13.45;;
51332;SDS011;37417;48.118;11.734;2023-01-29T00:50:26;19.98;;;12.73;;
51332;SDS011;37417;48.118;11.734;2023-01-29T00:52:51;26.03;;;12.60;;
51332;SDS011;37417;48.118;11.734;2023-01-29T00:55:18;19.65;;;9.32;;
51332;SDS011;37417;48.118;11.734;2023-01-29T00:57:43;20.30;;;11.40;;
51332;SDS011;37417;48.118;11.734;2023-01-29T01:00:10;18.08;;;11.32;;
51332;SDS011;37417;48.118;11.734;2023-01-29T01:02:35;17.65;;;10.80;;
51332;SDS011;37417;48.118;11.734;2023-01-29T01:05:19;22.13;;;11.32;;
51332;SDS011;37417;48.118;11.734;2023-01-29T01:07:48;22.35;;;12.20;;
51332;SDS011;37417;48.118;11.734;2023-01-29T01:10:19;24.15;;;12.07;;
51332;SDS011;37417;48.118;11.734;2023-01-29T01:12:52;19.30;;;11.40;;
51332;SDS011;37417;48.118;11.734;2023-01-29T01:15:18;18.27;;;11.05;;
51332;SDS011;37417;48.118;11.734;2023-01-29T01:17:43;22.55;;;12.95;;
51332;SDS011;37417;48.118;11.734;2023-01-29T01:20:09;21.95;;;10.60;;
51332;SDS011;37417;48.118;11.734;2023-01-29T01:22:35;22.23;;;10.45;;
51332;SDS011;37417;48.118;11.734;2023-01-29T01:25:00;21.77;;;12.38;;
51332;SDS011;37417;48.118;11.734;2023-01-29T01:27:25;16.27;;;11.70;;
51332;SDS011;37417;48.118;11.734;2023-01-29T01:29:50;16.15;;;10.55;;
51332;SDS011;37417;48.118;11.734;2023-01-29T01:32:16;19.80;;;12.45;;
51332;SDS011;37417;48.118;11.734;2023-01-29T01:34:41;19.98;;;10.48;;
51332;SDS011;37417;48.118;11.734;2023-01-29T01:37:06;22.27;;;12.07;;
51332;SDS011;37417;48.118;11.734;2023-01-29T01:39:31;19.57;;;11.53;;
51332;SDS011;37417;48.118;11.734;2023-01-29T01:41:56;19.20;;;9.70;;
51332;SDS011;37417;48.118;11.734;2023-01-29T01:47:05;16.55;;;10.57;;
51332;SDS011;37417;48.118;11.734;2023-01-29T01:49:31;21.02;;;12.10;;
51332;SDS011;37417;48.118;11.734;2023-01-29T01:51:56;19.52;;;11.18;;
51332;SDS011;37417;48.118;11.734;2023-01-29T01:54:23;17.50;;;10.57;;
51332;SDS011;37417;48.118;11.734;2023-01-29T01:56:51;17.30;;;10.70;;
51332;SDS011;37417;48.118;11.734;2023-01-29T01:59:19;19.42;;;10.98;;
51332;SDS011;37417;48.118;11.734;2023-01-29T02:01:46;18.15;;;11.43;;
51332;SDS011;37417;48.118;11.734;2023-01-29T02:04:16;18.85;;;11.35;;
51332;SDS011;37417;48.118;11.734;2023-01-29T02:07:01;14.23;;;9.85;;
51332;SDS011;37417;48.118;11.734;2023-01-29T02:09:50;19.10;;;10.75;;
51332;SDS011;37417;48.118;11.734;2023-01-29T02:12:16;21.15;;;11.20;;
51332;SDS011;37417;48.118;11.734;2023-01-29T02:14:42;16.27;;;9.18;;
51332;SDS011;37417;48.118;11.734;2023-01-29T02:17:12;17.48;;;11.40;;
51332;SDS011;37417;48.118;11.734;2023-01-29T02:19:46;15.00;;;10.18;;
51332;SDS011;37417;48.118;11.734;2023-01-29T02:27:09;16.80;;;10.63;;
51332;SDS011;37417;48.118;11.734;2023-01-29T02:29:39;17.58;;;11.38;;
51332;SDS011;37417;48.118;11.734;2023-01-29T02:32:20;17.50;;;10.77;;
51332;SDS011;37417;48.118;11.734;2023-01-29T02:34:59;15.35;;;9.55;;
51332;SDS011;37417;48.118;11.734;2023-01-29T02:40:28;16.33;;;9.85;;
51332;SDS011;37417;48.118;11.734;2023-01-29T02:43:03;16.55;;;9.80;;
51332;SDS011;37417;48.118;11.734;2023-01-29T02:45:38;18.27;;;11.23;;
51332;SDS011;37417;48.118;11.734;2023-01-29T02:48:06;16.95;;;10.23;;
51332;SDS011;37417;48.118;11.734;2023-01-29T02:50:37;18.25;;;9.32;;
51332;SDS011;37417;48.118;11.734;2023-01-29T02:53:26;16.35;;;9.38;;
51332;SDS011;37417;48.118;11.734;2023-01-29T02:58:32;14.93;;;9.43;;
51332;SDS011;37417;48.118;11.734;2023-01-29T03:01:01;19.45;;;11.35;;
51332;SDS011;37417;48.118;11.734;2023-01-29T03:03:30;16.35;;;9.35;;
51332;SDS011;37417;48.118;11.734;2023-01-29T03:05:59;17.40;;;9.93;;
51332;SDS011;37417;48.118;11.734;2023-01-29T03:08:30;18.58;;;10.98;;
51332;SDS011;37417;48.118;11.734;2023-01-29T03:11:04;20.75;;;10.50;;
51332;SDS011;37417;48.118;11.734;2023-01-29T03:16:03;18.40;;;11.73;;
51332;SDS011;37417;48.118;11.734;2023-01-29T03:18:32;19.10;;;11.75;;
51332;SDS011;37417;48.118;11.734;2023-01-29T03:21:06;19.58;;;10.35;;
51332;SDS011;37417;48.118;11.734;2023-01-29T03:23:53;19.85;;;10.90;;
51332;SDS011;37417;48.118;11.734;2023-01-29T03:26:37;18.13;;;10.35;;
51332;SDS011;37417;48.118;11.734;2023-01-29T03:29:21;23.95;;;12.40;;
51332;SDS011;37417;48.118;11.734;2023-01-29T03:32:05;21.55;;;12.02;;
51332;SDS011;37417;48.118;11.734;2023-01-29T03:34:33;23.40;;;12.63;;
51332;SDS011;37417;48.118;11.734;2023-01-29T03:39:46;22.10;;;11.60;;
51332;SDS011;37417;48.118;11.734;2023-01-29T03:42:16;19.17;;;12.60;;
51332;SDS011;37417;48.118;11.734;2023-01-29T03:44:47;17.15;;;10.20;;
51332;SDS011;37417;48.118;11.734;2023-01-29T03:47:17;22.70;;;12.45;;
51332;SDS011;37417;48.118;11.734;2023-01-29T03:49:56;19.10;;;11.57;;
51332;SDS011;37417;48.118;11.734;2023-01-29T03:54:59;21.27;;;12.00;;
51332;SDS011;37417;48.118;11.734;2023-01-29T03:57:33;15.48;;;10.48;;
51332;SDS011;37417;48.118;11.734;2023-01-29T04:00:02;20.42;;;11.55;;
51332;SDS011;37417;48.118;11.734;2023-01-29T04:02:37;19.25;;;10.93;;
51332;SDS011;37417;48.118;11.734;2023-01-29T04:05:05;19.77;;;12.63;;
51332;SDS011;37417;48.118;11.734;2023-01-29T04:07:33;24.10;;;12.85;;
51332;SDS011;37417;48.118;11.734;2023-01-29T04:10:02;15.85;;;9.90;;
51332;SDS011;37417;48.118;11.734;2023-01-29T04:12:34;22.65;;;12.00;;
51332;SDS011;37417;48.118;11.734;2023-01-29T04:15:01;14.73;;;9.57;;
51332;SDS011;37417;48.118;11.734;2023-01-29T04:17:30;22.10;;;12.70;;
51332;SDS011;37417;48.118;11.734;2023-01-29T04:19:59;19.38;;;10.50;;
51332;SDS011;37417;48.118;11.734;2023-01-29T04:22:26;20.05;;;10.32;;
51332;SDS011;37417;48.118;11.734;2023-01-29T04:24:54;19.45;;;11.00;;
51332;SDS011;37417;48.118;11.734;2023-01-29T04:27:25;19.75;;;11.02;;
51332;SDS011;37417;48.118;11.734;2023-01-29T04:30:10;17.20;;;11.00;;
51332;SDS011;37417;48.118;11.734;2023-01-29T04:37:58;18.83;;;10.65;;
51332;SDS011;37417;48.118;11.734;2023-01-29T04:40:31;17.85;;;9.93;;
51332;SDS011;37417;48.118;11.734;2023-01-29T04:45:35;18.27;;;10.25;;
51332;SDS011;37417;48.118;11.734;2023-01-29T04:50:35;21.47;;;10.80;;
51332;SDS011;37417;48.118;11.734;2023-01-29T04:58:03;19.30;;;11.10;;
51332;SDS011;37417;48.118;11.734;2023-01-29T05:00:32;15.70;;;9.27;;
51332;SDS011;37417;48.118;11.734;2023-01-29T05:02:59;19.10;;;10.23;;
51332;SDS011;37417;48.118;11.734;2023-01-29T05:05:24;19.45;;;10.88;;
51332;SDS011;37417;48.118;11.734;2023-01-29T05:07:50;18.52;;;10.05;;
51332;SDS011;37417;48.118;11.734;2023-01-29T05:10:17;17.27;;;10.27;;
51332;SDS011;37417;48.118;11.734;2023-01-29T05:12:44;19.27;;;10.50;;
51332;SDS011;37417;48.118;11.734;2023-01-29T05:15:11;19.45;;;11.30;;
51332;SDS011;37417;48.118;11.734;2023-01-29T05:17:38;19.23;;;11.23;;
51332;SDS011;37417;48.118;11.734;2023-01-29T05:20:03;15.55;;;9.52;;
51332;SDS011;37417;48.118;11.734;2023-01-29T05:22:28;16.08;;;9.95;;
51332;SDS011;37417;48.118;11.734;2023-01-29T05:24:54;20.50;;;11.70;;
51332;SDS011;37417;48.118;11.734;2023-01-29T05:27:30;18.87;;;11.07;;
51332;SDS011;37417;48.118;11.734;2023-01-29T05:30:15;16.10;;;9.90;;
51332;SDS011;37417;48.118;11.734;2023-01-29T05:32:40;20.90;;;10.60;;
51332;SDS011;37417;48.118;11.734;2023-01-29T05:35:05;19.63;;;10.98;;
51332;SDS011;37417;48.118;11.734;2023-01-29T05:37:31;17.30;;;10.25;;
51332;SDS011;37417;48.118;11.734;2023-01-29T05:39:56;24.85;;;11.75;;
51332;SDS011;37417;48.118;11.734;2023-01-29T05:42:21;20.77;;;11.23;;
51332;SDS011;37417;48.118;11.734;2023-01-29T05:44:46;19.87;;;11.00;;
51332;SDS011;37417;48.118;11.734;2023-01-29T05:47:11;19.10;;;10.17;;
51332;SDS011;37417;48.118;11.734;2023-01-29T05:49:37;19.63;;;9.73;;
51332;SDS011;37417;48.118;11.734;2023-01-29T05:52:02;18.35;;;10.35;;
51332;SDS011;37417;48.118;11.734;2023-01-29T05:54:27;17.95;;;10.40;;
51332;SDS011;37417;48.118;11.734;2023-01-29T05:56:52;19.92;;;11.18;;
51332;SDS011;37417;48.118;11.734;2023-01-29T05:59:18;21.67;;;10.83;;
51332;SDS011;37417;48.118;11.734;2023-01-29T06:01:43;20.38;;;10.48;;
51332;SDS011;37417;48.118;11.734;2023-01-29T06:04:08;19.85;;;12.07;;
51332;SDS011;37417;48.118;11.734;2023-01-29T06:06:33;17.73;;;10.40;;
51332;SDS011;37417;48.118;11.734;2023-01-29T06:08:59;22.20;;;11.00;;
51332;SDS011;37417;48.118;11.734;2023-01-29T06:11:24;18.87;;;10.93;;
51332;SDS011;37417;48.118;11.734;2023-01-29T06:13:49;17.25;;;10.50;;
51332;SDS011;37417;48.118;11.734;2023-01-29T06:16:15;15.35;;;9.32;;
51332;SDS011;37417;48.118;11.734;2023-01-29T06:18:40;14.30;;;9.05;;
51332;SDS011;37417;48.118;11.734;2023-01-29T06:21:06;19.35;;;10.50;;
51332;SDS011;37417;48.118;11.734;2023-01-29T06:23:32;18.38;;;10.07;;
51332;SDS011;37417;48.118;11.734;2023-01-29T06:26:01;16.45;;;10.18;;
51332;SDS011;37417;48.118;11.734;2023-01-29T06:28:26;17.40;;;9.88;;
51332;SDS011;37417;48.118;11.734;2023-01-29T06:30:51;18.30;;;10.65;;
51332;SDS011;37417;48.118;11.734;2023-01-29T06:33:16;17.57;;;10.40;;
51332;SDS011;37417;48.118;11.734;2023-01-29T06:35:42;16.67;;;10.00;;
51332;SDS011;37417;48.118;11.734;2023-01-29T06:38:07;16.37;;;8.97;;
51332;SDS011;37417;48.118;11.734;2023-01-29T06:40:32;17.10;;;10.30;;
51332;SDS011;37417;48.118;11.734;2023-01-29T06:42:59;20.48;;;10.88;;
51332;SDS011;37417;48.118;11.734;2023-01-29T06:45:24;16.35;;;9.48;;
51332;SDS011;37417;48.118;11.734;2023-01-29T06:47:49;19.63;;;11.57;;
51332;SDS011;37417;48.118;11.734;2023-01-29T06:50:14;18.07;;;10.00;;
51332;SDS011;37417;48.118;11.734;2023-01-29T06:52:39;15.63;;;9.65;;
51332;SDS011;37417;48.118;11.734;2023-01-29T06:55:05;16.90;;;9.57;;
51332;SDS011;37417;48.118;11.734;2023-01-29T06:57:30;19.35;;;10.57;;
51332;SDS011;37417;48.118;11.734;2023-01-29T06:59:55;18.33;;;10.23;;
51332;SDS011;37417;48.118;11.734;2023-01-29T07:02:20;15.47;;;9.63;;
51332;SDS011;37417;48.118;11.734;2023-01-29T07:04:45;16.13;;;9.20;;
51332;SDS011;37417;48.118;11.734;2023-01-29T07:07:11;12.13;;;8.27;;
51332;SDS011;37417;48.118;11.734;2023-01-29T07:09:40;13.90;;;8.60;;
51332;SDS011;37417;48.118;11.734;2023-01-29T07:12:05;14.30;;;8.80;;
51332;SDS011;37417;48.118;11.734;2023-01-29T07:14:30;14.02;;;8.63;;
51332;SDS011;37417;48.118;11.734;2023-01-29T07:16:56;13.30;;;7.27;;
51332;SDS011;37417;48.118;11.734;2023-01-29T07:19:21;13.23;;;9.27;;
51332;SDS011;37417;48.118;11.734;2023-01-29T07:21:47;15.00;;;8.40;;
51332;SDS011;37417;48.118;11.734;2023-01-29T07:24:13;12.90;;;7.47;;
51332;SDS011;37417;48.118;11.734;2023-01-29T07:26:38;8.90;;;5.68;;
51332;SDS011;37417;48.118;11.734;2023-01-29T07:29:03;10.23;;;5.93;;
51332;SDS011;37417;48.118;11.734;2023-01-29T07:31:29;10.48;;;5.28;;
51332;SDS011;37417;48.118;11.734;2023-01-29T07:33:54;12.60;;;5.93;;
51332;SDS011;37417;48.118;11.734;2023-01-29T07:36:19;14.00;;;7.88;;
51332;SDS011;37417;48.118;11.734;2023-01-29T07:38:47;15.53;;;8.47;;
51332;SDS011;37417;48.118;11.734;2023-01-29T07:41:13;15.75;;;10.00;;
51332;SDS011;37417;48.118;11.734;2023-01-29T07:43:38;16.47;;;9.43;;
51332;SDS011;37417;48.118;11.734;2023-01-29T07:46:03;13.15;;;8.93;;
51332;SDS011;37417;48.118;11.734;2023-01-29T07:48:29;12.77;;;8.93;;
51332;SDS011;37417;48.118;11.734;2023-01-29T07:50:55;15.25;;;8.52;;
51332;SDS011;37417;48.118;11.734;2023-01-29T07:53:20;13.35;;;8.48;;
51332;SDS011;37417;48.118;11.734;2023-01-29T07:55:45;12.07;;;7.00;;
51332;SDS011;37417;48.118;11.734;2023-01-29T07:58:10;13.13;;;5.80;;
51332;SDS011;37417;48.118;11.734;2023-01-29T08:00:36;10.95;;;5.90;;
51332;SDS011;37417;48.118;11.734;2023-01-29T08:03:02;9.70;;;4.93;;
51332;SDS011;37417;48.118;11.734;2023-01-29T08:05:28;10.20;;;5.15;;
51332;SDS011;37417;48.118;11.734;2023-01-29T08:07:53;11.97;;;5.87;;
51332;SDS011;37417;48.118;11.734;2023-01-29T08:10:18;10.00;;;5.77;;
51332;SDS011;37417;48.118;11.734;2023-01-29T08:12:43;8.60;;;5.53;;
51332;SDS011;37417;48.118;11.734;2023-01-29T08:15:09;10.43;;;5.18;;
51332;SDS011;37417;48.118;11.734;2023-01-29T08:17:34;9.27;;;4.78;;
51332;SDS011;37417;48.118;11.734;2023-01-29T08:19:59;8.10;;;5.20;;
51332;SDS011;37417;48.118;11.734;2023-01-29T08:22:24;7.88;;;4.25;;
51332;SDS011;37417;48.118;11.734;2023-01-29T08:24:49;9.63;;;5.90;;
51332;SDS011;37417;48.118;11.734;2023-01-29T08:27:15;9.57;;;5.10;;
51332;SDS011;37417;48.118;11.734;2023-01-29T08:29:40;7.28;;;4.45;;
51332;SDS011;37417;48.118;11.734;2023-01-29T08:32:08;7.25;;;4.45;;
51332;SDS011;37417;48.118;11.734;2023-01-29T08:34:33;7.88;;;5.05;;
51332;SDS011;37417;48.118;11.734;2023-01-29T08:36:58;8.20;;;5.33;;
51332;SDS011;37417;48.118;11.734;2023-01-29T08:39:23;9.23;;;5.10;;
51332;SDS011;37417;48.118;11.734;2023-01-29T08:41:49;8.43;;;5.27;;
51332;SDS011;37417;48.118;11.734;2023-01-29T08:44:14;8.03;;;4.70;;
51332;SDS011;37417;48.118;11.734;2023-01-29T08:46:39;8.07;;;5.13;;
51332;SDS011;37417;48.118;11.734;2023-01-29T08:49:04;9.63;;;5.25;;
51332;SDS011;37417;48.118;11.734;2023-01-29T08:51:30;9.88;;;4.82;;
51332;SDS011;37417;48.118;11.734;2023-01-29T08:53:55;8.43;;;5.37;;
51332;SDS011;37417;48.118;11.734;2023-01-29T08:56:20;8.30;;;4.90;;
51332;SDS011;37417;48.118;11.734;2023-01-29T08:58:45;10.82;;;5.53;;
51332;SDS011;37417;48.118;11.734;2023-01-29T09:01:12;7.20;;;4.22;;
51332;SDS011;37417;48.118;11.734;2023-01-29T09:03:37;8.10;;;3.95;;
51332;SDS011;37417;48.118;11.734;2023-01-29T09:06:05;8.38;;;5.28;;
51332;SDS011;37417;48.118;11.734;2023-01-29T09:08:30;7.72;;;4.40;;
51332;SDS011;37417;48.118;11.734;2023-01-29T09:10:57;7.57;;;4.00;;
51332;SDS011;37417;48.118;11.734;2023-01-29T09:13:22;9.05;;;4.63;;
51332;SDS011;37417;48.118;11.734;2023-01-29T09:15:47;8.13;;;4.57;;
51332;SDS011;37417;48.118;11.734;2023-01-29T09:18:12;8.53;;;4.33;;
51332;SDS011;37417;48.118;11.734;2023-01-29T09:20:38;5.77;;;4.20;;
51332;SDS011;37417;48.118;11.734;2023-01-29T09:23:04;9.50;;;4.60;;
51332;SDS011;37417;48.118;11.734;2023-01-29T09:25:29;7.95;;;4.32;;
51332;SDS011;37417;48.118;11.734;2023-01-29T09:27:54;9.47;;;3.87;;
51332;SDS011;37417;48.118;11.734;2023-01-29T09:30:19;4.50;;;3.23;;
51332;SDS011;37417;48.118;11.734;2023-01-29T09:32:45;8.40;;;3.80;;
51332;SDS011;37417;48.118;11.734;2023-01-29T09:35:10;7.63;;;4.82;;
51332;SDS011;37417;48.118;11.734;2023-01-29T09:37:35;7.67;;;4.83;;
51332;SDS011;37417;48.118;11.734;2023-01-29T09:40:00;9.20;;;4.70;;
51332;SDS011;37417;48.118;11.734;2023-01-29T09:42:40;5.60;;;3.87;;
51332;SDS011;37417;48.118;11.734;2023-01-29T09:45:14;7.20;;;4.38;;
51332;SDS011;37417;48.118;11.734;2023-01-29T09:47:40;5.03;;;4.22;;
51332;SDS011;37417;48.118;11.734;2023-01-29T09:50:07;7.13;;;4.07;;
51332;SDS011;37417;48.118;11.734;2023-01-29T09:55:06;5.20;;;3.42;;
51332;SDS011;37417;48.118;11.734;2023-01-29T09:57:55;8.55;;;4.97;;
51332;SDS011;37417;48.118;11.734;2023-01-29T10:05:21;4.63;;;3.53;;
51332;SDS011;37417;48.118;11.734;2023-01-29T10:07:55;8.25;;;4.82;;
51332;SDS011;37417;48.118;11.734;2023-01-29T10:10:31;6.97;;;4.28;;
51332;SDS011;37417;48.118;11.734;2023-01-29T10:23:38;5.55;;;4.10;;
51332;SDS011;37417;48.118;11.734;2023-01-29T10:26:06;7.82;;;4.60;;
51332;SDS011;37417;48.118;11.734;2023-01-29T10:28:44;7.68;;;4.47;;
51332;SDS011;37417;48.118;11.734;2023-01-29T10:31:12;6.93;;;4.85;;
51332;SDS011;37417;48.118;11.734;2023-01-29T10:33:40;6.30;;;4.20;;
51332;SDS011;37417;48.118;11.734;2023-01-29T10:36:07;5.68;;;3.90;;
51332;SDS011;37417;48.118;11.734;2023-01-29T10:43:36;5.75;;;4.03;;
51332;SDS011;37417;48.118;11.734;2023-01-29T10:48:36;10.20;;;5.60;;
51332;SDS011;37417;48.118;11.734;2023-01-29T10:51:16;7.30;;;4.80;;
51332;SDS011;37417;48.118;11.734;2023-01-29T10:54:22;7.35;;;4.43;;
51332;SDS011;37417;48.118;11.734;2023-01-29T10:56:56;10.90;;;5.07;;
51332;SDS011;37417;48.118;11.734;2023-01-29T11:01:58;7.38;;;4.63;;
51332;SDS011;37417;48.118;11.734;2023-01-29T11:04:24;5.43;;;4.45;;
51332;SDS011;37417;48.118;11.734;2023-01-29T11:06:49;12.38;;;5.03;;
51332;SDS011;37417;48.118;11.734;2023-01-29T11:11:55;8.48;;;4.28;;
51332;SDS011;37417;48.118;11.734;2023-01-29T11:14:23;8.05;;;4.85;;
51332;SDS011;37417;48.118;11.734;2023-01-29T11:16:49;6.13;;;4.07;;
51332;SDS011;37417;48.118;11.734;2023-01-29T11:19:15;6.80;;;5.00;;
51332;SDS011;37417;48.118;11.734;2023-01-29T11:24:14;7.32;;;4.10;;
51332;SDS011;37417;48.118;11.734;2023-01-29T11:26:41;6.80;;;4.63;;
51332;SDS011;37417;48.118;11.734;2023-01-29T11:31:51;7.13;;;4.55;;
51332;SDS011;37417;48.118;11.734;2023-01-29T11:34:21;6.03;;;4.13;;
51332;SDS011;37417;48.118;11.734;2023-01-29T11:36:55;8.63;;;4.72;;
51332;SDS011;37417;48.118;11.734;2023-01-29T11:39:21;8.10;;;5.43;;
51332;SDS011;37417;48.118;11.734;2023-01-29T11:41:48;7.30;;;4.55;;
51332;SDS011;37417;48.118;11.734;2023-01-29T11:44:39;6.15;;;4.60;;
51332;SDS011;37417;48.118;11.734;2023-01-29T11:49:38;7.07;;;5.07;;
51332;SDS011;37417;48.118;11.734;2023-01-29T11:52:05;8.85;;;5.10;;
51332;SDS011;37417;48.118;11.734;2023-01-29T11:54:38;7.60;;;4.95;;
51332;SDS011;37417;48.118;11.734;2023-01-29T11:57:04;6.95;;;5.03;;
51332;SDS011;37417;48.118;11.734;2023-01-29T11:59:40;8.15;;;5.78;;
51332;SDS011;37417;48.118;11.734;2023-01-29T12:04:55;6.68;;;5.15;;
51332;SDS011;37417;48.118;11.734;2023-01-29T12:07:21;7.22;;;5.20;;
51332;SDS011;37417;48.118;11.734;2023-01-29T12:09:47;6.97;;;5.25;;
51332;SDS011;37417;48.118;11.734;2023-01-29T12:15:02;7.88;;;5.22;;
51332;SDS011;37417;48.118;11.734;2023-01-29T12:17:28;5.80;;;4.47;;
51332;SDS011;37417;48.118;11.734;2023-01-29T12:19:58;9.32;;;5.85;;
51332;SDS011;37417;48.118;11.734;2023-01-29T12:25:06;9.63;;;3.92;;
51332;SDS011;37417;48.118;11.734;2023-01-29T12:40:15;7.70;;;4.50;;
51332;SDS011;37417;48.118;11.734;2023-01-29T12:42:42;4.97;;;3.63;;
51332;SDS011;37417;48.118;11.734;2023-01-29T12:45:08;7.40;;;3.58;;
51332;SDS011;37417;48.118;11.734;2023-01-29T12:47:40;6.38;;;5.20;;
51332;SDS011;37417;48.118;11.734;2023-01-29T13:00:34;11.95;;;4.93;;
51332;SDS011;37417;48.118;11.734;2023-01-29T13:03:07;5.53;;;2.83;;
51332;SDS011;37417;48.118;11.734;2023-01-29T13:05:39;7.57;;;5.32;;
51332;SDS011;37417;48.118;11.734;2023-01-29T13:08:09;8.88;;;5.25;;
51332;SDS011;37417;48.118;11.734;2023-01-29T13:10:36;9.35;;;5.88;;
51332;SDS011;37417;48.118;11.734;2023-01-29T13:13:03;6.18;;;4.28;;
51332;SDS011;37417;48.118;11.734;2023-01-29T13:15:32;7.25;;;4.90;;
51332;SDS011;37417;48.118;11.734;2023-01-29T13:18:02;10.38;;;5.70;;
51332;SDS011;37417;48.118;11.734;2023-01-29T13:20:31;6.82;;;5.57;;
51332;SDS011;37417;48.118;11.734;2023-01-29T13:23:03;6.72;;;4.72;;
51332;SDS011;37417;48.118;11.734;2023-01-29T13:25:29;10.55;;;5.28;;
51332;SDS011;37417;48.118;11.734;2023-01-29T13:27:55;9.10;;;5.45;;
51332;SDS011;37417;48.118;11.734;2023-01-29T13:30:27;12.32;;;5.80;;
51332;SDS011;37417;48.118;11.734;2023-01-29T13:32:53;8.55;;;5.70;;
51332;SDS011;37417;48.118;11.734;2023-01-29T13:35:19;7.00;;;5.00;;
51332;SDS011;37417;48.118;11.734;2023-01-29T13:37:46;8.82;;;5.53;;
51332;SDS011;37417;48.118;11.734;2023-01-29T13:40:23;10.68;;;6.05;;
51332;SDS011;37417;48.118;11.734;2023-01-29T13:42:48;8.05;;;4.95;;
51332;SDS011;37417;48.118;11.734;2023-01-29T13:45:33;7.85;;;4.80;;
51332;SDS011;37417;48.118;11.734;2023-01-29T13:50:38;6.88;;;4.68;;
51332;SDS011;37417;48.118;11.734;2023-01-29T13:53:04;7.95;;;5.93;;
51332;SDS011;37417;48.118;11.734;2023-01-29T13:55:34;7.70;;;5.28;;
51332;SDS011;37417;48.118;11.734;2023-01-29T13:58:00;9.15;;;5.55;;
51332;SDS011;37417;48.118;11.734;2023-01-29T14:07:56;8.02;;;5.85;;
51332;SDS011;37417;48.118;11.734;2023-01-29T14:10:23;10.90;;;5.43;;
51332;SDS011;37417;48.118;11.734;2023-01-29T14:12:49;10.82;;;5.63;;
51332;SDS011;37417;48.118;11.734;2023-01-29T14:15:16;7.68;;;4.53;;
51332;SDS011;37417;48.118;11.734;2023-01-29T14:17:55;10.35;;;5.03;;
51332;SDS011;37417;48.118;11.734;2023-01-29T14:20:27;9.52;;;5.65;;
51332;SDS011;37417;48.118;11.734;2023-01-29T14:22:55;7.38;;;5.18;;
51332;SDS011;37417;48.118;11.734;2023-01-29T14:25:21;6.80;;;4.75;;
51332;SDS011;37417;48.118;11.734;2023-01-29T14:27:51;7.13;;;5.28;;
51332;SDS011;37417;48.118;11.734;2023-01-29T14:30:16;10.30;;;5.38;;
51332;SDS011;37417;48.118;11.734;2023-01-29T14:32:42;10.75;;;5.88;;
51332;SDS011;37417;48.118;11.734;2023-01-29T14:35:21;12.43;;;5.35;;
51332;SDS011;37417;48.118;11.734;2023-01-29T14:37:48;10.98;;;5.93;;
51332;SDS011;37417;48.118;11.734;2023-01-29T14:40:18;9.15;;;5.95;;
51332;SDS011;37417;48.118;11.734;2023-01-29T14:45:29;8.67;;;5.80;;
51332;SDS011;37417;48.118;11.734;2023-01-29T14:47:58;11.75;;;5.93;;
51332;SDS011;37417;48.118;11.734;2023-01-29T14:52:52;7.05;;;5.22;;
51332;SDS011;37417;48.118;11.734;2023-01-29T14:55:40;9.98;;;5.60;;
51332;SDS011;37417;48.118;11.734;2023-01-29T14:58:04;6.63;;;4.93;;
51332;SDS011;37417;48.118;11.734;2023-01-29T15:00:32;11.20;;;6.18;;
51332;SDS011;37417;48.118;11.734;2023-01-29T15:02:58;7.15;;;4.53;;
51332;SDS011;37417;48.118;11.734;2023-01-29T15:05:24;9.43;;;5.38;;
51332;SDS011;37417;48.118;11.734;2023-01-29T15:10:19;9.73;;;6.15;;
51332;SDS011;37417;48.118;11.734;2023-01-29T15:15:45;9.90;;;6.10;;
51332;SDS011;37417;48.118;11.734;2023-01-29T15:18:15;11.38;;;5.80;;
51332;SDS011;37417;48.118;11.734;2023-01-29T15:20:42;9.95;;;6.10;;
51332;SDS011;37417;48.118;11.734;2023-01-29T15:25:48;9.60;;;7.00;;
51332;SDS011;37417;48.118;11.734;2023-01-29T15:28:15;12.45;;;7.82;;
51332;SDS011;37417;48.118;11.734;2023-01-29T15:30:40;12.85;;;7.90;;
51332;SDS011;37417;48.118;11.734;2023-01-29T15:33:07;13.73;;;8.23;;
51332;SDS011;37417;48.118;11.734;2023-01-29T15:35:35;15.90;;;7.50;;
51332;SDS011;37417;48.118;11.734;2023-01-29T15:38:05;12.70;;;8.60;;
51332;SDS011;37417;48.118;11.734;2023-01-29T15:40:31;15.90;;;8.13;;
51332;SDS011;37417;48.118;11.734;2023-01-29T15:42:56;12.35;;;7.68;;
51332;SDS011;37417;48.118;11.734;2023-01-29T15:45:22;14.67;;;9.17;;
51332;SDS011;37417;48.118;11.734;2023-01-29T15:47:49;12.88;;;8.20;;
51332;SDS011;37417;48.118;11.734;2023-01-29T15:50:15;13.52;;;8.27;;
51332;SDS011;37417;48.118;11.734;2023-01-29T15:52:41;13.57;;;8.27;;
51332;SDS011;37417;48.118;11.734;2023-01-29T15:55:06;12.93;;;8.00;;
51332;SDS011;37417;48.118;11.734;2023-01-29T15:57:35;13.70;;;7.47;;
51332;SDS011;37417;48.118;11.734;2023-01-29T16:00:02;6.05;;;4.60;;
51332;SDS011;37417;48.118;11.734;2023-01-29T16:04:53;13.97;;;7.33;;
51332;SDS011;37417;48.118;11.734;2023-01-29T16:07:19;11.15;;;7.15;;
51332;SDS011;37417;48.118;11.734;2023-01-29T16:09:45;12.00;;;7.53;;
51332;SDS011;37417;48.118;11.734;2023-01-29T16:12:10;11.90;;;6.85;;
51332;SDS011;37417;48.118;11.734;2023-01-29T16:14:36;17.10;;;8.52;;
51332;SDS011;37417;48.118;11.734;2023-01-29T16:19:53;11.45;;;6.93;;
51332;SDS011;37417;48.118;11.734;2023-01-29T16:22:19;10.65;;;7.80;;
51332;SDS011;37417;48.118;11.734;2023-01-29T16:24:46;14.80;;;7.90;;
51332;SDS011;37417;48.118;11.734;2023-01-29T16:27:13;11.68;;;6.38;;
51332;SDS011;37417;48.118;11.734;2023-01-29T16:29:39;10.02;;;6.88;;
51332;SDS011;37417;48.118;11.734;2023-01-29T16:32:04;10.48;;;6.95;;
51332;SDS011;37417;48.118;11.734;2023-01-29T16:34:34;14.55;;;7.15;;
51332;SDS011;37417;48.118;11.734;2023-01-29T16:37:00;8.80;;;5.55;;
51332;SDS011;37417;48.118;11.734;2023-01-29T16:39:28;11.60;;;7.13;;
51332;SDS011;37417;48.118;11.734;2023-01-29T16:44:31;14.35;;;8.23;;